createdAt,value
2019-05-13T00:02:23.968Z,1.00
2019-05-13T00:04:49.985Z,1.30
2019-05-13T00:07:17.461Z,1.10
2019-05-13T00:09:44.949Z,1.30
2019-05-13T00:12:13.748Z,1.20
2019-05-13T00:14:40.687Z,1.47
2019-05-13T00:17:08.190Z,1.47
2019-05-13T00:19:35.673Z,1.70
2019-05-13T00:22:04.724Z,1.80
2019-05-13T00:24:33.887Z,1.70
2019-05-13T00:27:00.433Z,1.70
2019-05-13T00:29:27.936Z,1.80
2019-05-13T00:31:55.420Z,1.70
2019-05-13T00:34:24.321Z,1.70
2019-05-13T00:37:05.918Z,2.00
2019-05-13T00:39:18.370Z,1.60
2019-05-13T00:41:45.833Z,1.90
2019-05-13T00:44:14.317Z,1.97
2019-05-13T00:46:40.791Z,2.03
2019-05-13T00:49:09.042Z,1.90
2019-05-13T00:51:36.520Z,1.90
2019-05-13T00:54:04.436Z,1.87
2019-05-13T00:56:31.625Z,2.10
2019-05-13T00:58:59.216Z,2.10
2019-05-13T01:01:26.680Z,1.83
2019-05-13T01:03:54.174Z,2.03
2019-05-13T01:06:23.700Z,1.77
2019-05-13T01:08:49.887Z,2.10
2019-05-13T01:11:17.364Z,2.00
2019-05-13T01:13:45.688Z,1.83
2019-05-13T01:16:14.092Z,2.00
2019-05-13T01:18:40.657Z,1.70
2019-05-13T01:21:08.137Z,1.70
2019-05-13T01:23:36.389Z,1.83
2019-05-13T01:26:04.150Z,2.20
2019-05-13T01:28:31.442Z,2.27
2019-05-13T01:30:58.912Z,2.20
2019-05-13T01:33:27.525Z,1.80
2019-05-13T01:35:55.023Z,2.23
2019-05-13T01:38:24.290Z,2.07
2019-05-13T01:40:53.954Z,1.80
2019-05-13T01:43:20.734Z,1.80
2019-05-13T01:45:49.203Z,2.20
2019-05-13T01:48:18.022Z,1.90
2019-05-13T01:50:46.858Z,2.20
2019-05-13T01:53:14.641Z,2.03
2019-05-13T01:55:44.077Z,2.00
2019-05-13T01:58:09.356Z,1.97
2019-05-13T02:00:38.179Z,1.97
2019-05-13T02:03:07.048Z,2.20
2019-05-13T02:05:35.901Z,2.17
2019-05-13T02:08:04.934Z,2.50
2019-05-13T02:10:39.431Z,1.93
2019-05-13T02:13:08.275Z,2.27
2019-05-13T02:15:37.125Z,1.93
2019-05-13T02:18:05.945Z,2.23
2019-05-13T02:20:34.767Z,2.10
2019-05-13T02:23:04.325Z,2.20
2019-05-13T02:25:34.077Z,1.83
2019-05-13T02:28:08.919Z,2.10
2019-05-13T02:30:28.913Z,2.43
2019-05-13T02:32:56.424Z,2.10
2019-05-13T02:35:23.988Z,2.10
2019-05-13T02:37:52.808Z,2.20
2019-05-13T02:40:22.674Z,1.90
2019-05-13T02:42:47.758Z,2.07
2019-05-13T02:45:15.216Z,2.07
2019-05-13T02:47:44.410Z,2.30
2019-05-13T02:50:12.615Z,2.30
2019-05-13T02:52:40.147Z,2.40
2019-05-13T02:55:07.636Z,1.90
2019-05-13T02:57:35.904Z,1.93
2019-05-13T03:00:06.849Z,2.10
2019-05-13T03:02:34.372Z,1.90
2019-05-13T03:05:03.299Z,2.10
2019-05-13T03:07:33.080Z,2.23
2019-05-13T03:09:57.703Z,2.13
2019-05-13T03:12:25.178Z,2.53
2019-05-13T03:14:53.423Z,1.73
2019-05-13T03:17:22.319Z,2.20
2019-05-13T03:19:48.086Z,2.43
2019-05-13T03:22:15.557Z,2.50
2019-05-13T03:24:43.800Z,2.50
2019-05-13T03:27:13.014Z,2.10
2019-05-13T03:29:43.213Z,2.27
2019-05-13T03:32:15.375Z,2.53
2019-05-13T03:34:38.612Z,2.30
2019-05-13T03:37:08.145Z,1.97
2019-05-13T03:39:36.276Z,2.37
2019-05-13T03:42:05.182Z,1.90
2019-05-13T03:44:34.006Z,2.30
2019-05-13T03:47:04.319Z,2.37
2019-05-13T03:49:33.154Z,2.00
2019-05-13T03:52:03.202Z,2.00
2019-05-13T03:54:32.743Z,2.73
2019-05-13T03:57:03.160Z,1.93
2019-05-13T03:59:28.592Z,2.10
2019-05-13T04:01:57.404Z,2.17
2019-05-13T04:04:24.987Z,2.50
2019-05-13T04:06:53.164Z,2.17
2019-05-13T04:09:27.598Z,2.10
2019-05-13T04:11:48.226Z,2.47
2019-05-13T04:14:15.761Z,2.07
2019-05-13T04:16:43.248Z,2.30
2019-05-13T04:19:12.298Z,2.33
2019-05-13T04:21:38.188Z,2.17
2019-05-13T04:24:05.672Z,2.63
2019-05-13T04:26:33.966Z,1.90
2019-05-13T04:29:03.087Z,2.20
2019-05-13T04:31:33.063Z,2.13
2019-05-13T04:33:57.310Z,1.90
2019-05-13T04:36:24.773Z,1.90
2019-05-13T04:38:53.023Z,2.40
2019-05-13T04:41:22.593Z,1.77
2019-05-13T04:43:48.249Z,2.03
2019-05-13T04:46:16.496Z,2.20
2019-05-13T04:48:44.607Z,1.93
2019-05-13T04:51:13.654Z,1.73
2019-05-13T04:53:42.359Z,2.20
2019-05-13T04:56:06.928Z,2.10
2019-05-13T04:58:34.391Z,2.37
2019-05-13T05:01:09.020Z,2.20
2019-05-13T05:03:45.546Z,2.20
2019-05-13T05:09:06.335Z,2.37
2019-05-13T05:11:42.535Z,2.57
2019-05-13T05:14:13.064Z,2.40
2019-05-13T05:16:46.241Z,2.23
2019-05-13T05:19:36.427Z,2.80
2019-05-13T05:22:13.417Z,2.77
2019-05-13T05:24:43.396Z,2.43
2019-05-13T05:27:21.396Z,2.77
2019-05-13T05:30:02.060Z,2.70
2019-05-13T05:33:11.304Z,2.60
2019-05-13T05:35:43.949Z,1.80
2019-05-13T05:38:26.139Z,3.20
2019-05-13T05:40:53.696Z,3.00
2019-05-13T05:43:22.421Z,2.90
2019-05-13T05:45:51.252Z,2.87
2019-05-13T05:48:17.079Z,2.43
2019-05-13T05:50:44.640Z,2.87
2019-05-13T05:53:12.313Z,2.43
2019-05-13T05:55:41.343Z,2.20
2019-05-13T05:58:08.865Z,2.30
2019-05-13T06:00:37.163Z,2.37
2019-05-13T06:03:05.452Z,3.20
2019-05-13T06:05:33.705Z,3.10
2019-05-13T06:08:02.024Z,2.40
2019-05-13T06:10:44.249Z,2.30
2019-05-13T06:13:01.684Z,2.10
2019-05-13T06:15:26.833Z,2.40
2019-05-13T06:17:54.804Z,3.00
2019-05-13T06:20:24.099Z,2.77
2019-05-13T06:22:52.744Z,3.23
2019-05-13T06:25:23.271Z,3.17
2019-05-13T06:27:47.893Z,3.27
2019-05-13T06:30:15.395Z,3.07
2019-05-13T06:32:42.878Z,2.80
2019-05-13T06:35:11.601Z,2.77
2019-05-13T06:37:41.444Z,3.17
2019-05-13T06:40:07.752Z,3.60
2019-05-13T06:42:35.249Z,3.07
2019-05-13T06:45:04.396Z,2.80
2019-05-13T06:47:33.250Z,2.00
2019-05-13T06:50:02.995Z,2.57
2019-05-13T06:52:28.412Z,2.73
2019-05-13T06:54:56.654Z,1.97
2019-05-13T06:57:24.440Z,2.50
2019-05-13T06:59:52.525Z,2.73
2019-05-13T07:02:21.594Z,2.50
2019-05-13T07:04:48.085Z,2.00
2019-05-13T07:07:17.274Z,1.87
2019-05-13T07:09:43.172Z,2.00
2019-05-13T07:12:11.361Z,2.10
2019-05-13T07:14:38.159Z,2.10
2019-05-13T07:17:06.033Z,2.30
2019-05-13T07:19:33.624Z,2.37
2019-05-13T07:22:02.730Z,2.17
2019-05-13T07:24:28.645Z,2.10
2019-05-13T07:26:56.145Z,1.93
2019-05-13T07:29:24.503Z,1.77
2019-05-13T07:31:52.336Z,1.80
2019-05-13T07:34:24.107Z,1.87
2019-05-13T07:36:47.792Z,1.57
2019-05-13T07:39:15.276Z,1.50
2019-05-13T07:41:43.340Z,1.40
2019-05-13T07:44:12.042Z,1.52
2019-05-13T07:46:42.460Z,1.43
2019-05-13T07:49:07.807Z,1.50
2019-05-13T07:51:36.098Z,1.77
2019-05-13T07:54:04.647Z,1.50
2019-05-13T07:56:32.550Z,1.80
2019-05-13T07:59:01.763Z,2.00
2019-05-13T08:01:28.774Z,1.50
2019-05-13T08:03:57.318Z,1.40
2019-05-13T08:06:24.818Z,1.50
2019-05-13T08:08:52.489Z,1.43
2019-05-13T08:11:22.405Z,2.07
2019-05-13T08:13:51.556Z,1.60
2019-05-13T08:16:17.235Z,1.20
2019-05-13T08:18:44.791Z,1.40
2019-05-13T08:21:12.408Z,1.70
2019-05-13T08:23:41.725Z,1.93
2019-05-13T08:26:09.224Z,1.60
2019-05-13T08:28:52.670Z,1.40
2019-05-13T08:31:04.257Z,1.60
2019-05-13T08:33:32.204Z,1.77
2019-05-13T08:36:01.609Z,1.70
2019-05-13T08:38:28.468Z,2.03
2019-05-13T08:40:55.951Z,1.40
2019-05-13T08:43:23.448Z,1.37
2019-05-13T08:45:52.395Z,1.50
2019-05-13T08:48:18.434Z,1.50
2019-05-13T08:50:47.521Z,1.50
2019-05-13T08:53:15.194Z,1.60
2019-05-13T08:55:43.127Z,1.40
2019-05-13T08:58:12.472Z,2.00
2019-05-13T09:00:44.034Z,1.80
2019-05-13T09:03:12.185Z,1.63
2019-05-13T09:05:41.307Z,1.50
2019-05-13T09:08:06.656Z,1.47
2019-05-13T09:10:35.002Z,1.53
2019-05-13T09:13:02.600Z,1.60
2019-05-13T09:15:31.652Z,1.50
2019-05-13T09:17:57.706Z,1.60
2019-05-13T09:20:25.964Z,1.50
2019-05-13T09:22:53.550Z,1.70
2019-05-13T09:25:21.598Z,1.60
2019-05-13T09:27:51.364Z,1.80
2019-05-13T09:30:17.418Z,1.97
2019-05-13T09:32:44.907Z,1.50
2019-05-13T09:35:12.377Z,1.50
2019-05-13T09:37:42.167Z,1.70
2019-05-13T09:40:07.500Z,1.60
2019-05-13T09:42:48.222Z,1.60
2019-05-13T09:45:05.104Z,1.20
2019-05-13T09:47:32.578Z,1.60
2019-05-13T09:50:00.856Z,1.97
2019-05-13T09:52:28.966Z,1.70
2019-05-13T09:54:56.475Z,1.87
2019-05-13T09:57:25.698Z,1.93
2019-05-13T09:59:53.189Z,1.67
2019-05-13T10:02:21.437Z,1.50
2019-05-13T10:04:48.408Z,1.30
2019-05-13T10:07:16.664Z,1.47
2019-05-13T10:09:48.094Z,1.50
2019-05-13T10:12:12.270Z,1.50
2019-05-13T10:14:39.166Z,1.50
2019-05-13T10:17:07.526Z,1.70
2019-05-13T10:19:35.091Z,1.40
2019-05-13T10:22:04.288Z,1.40
2019-05-13T10:24:32.772Z,1.50
2019-05-13T10:27:02.427Z,1.50
2019-05-13T10:29:27.691Z,1.50
2019-05-13T10:31:55.264Z,1.37
2019-05-13T10:34:22.947Z,1.77
2019-05-13T10:36:51.514Z,1.63
2019-05-13T10:39:19.488Z,1.87
2019-05-13T10:41:46.969Z,1.73
2019-05-13T10:44:15.359Z,1.70
2019-05-13T10:46:43.597Z,1.60
2019-05-13T10:49:12.258Z,1.50
2019-05-13T10:51:38.716Z,1.70
2019-05-13T10:54:06.224Z,1.57
2019-05-13T10:56:33.764Z,1.63
2019-05-13T10:59:02.645Z,1.73
2019-05-13T11:01:32.607Z,1.43
2019-05-13T11:03:57.184Z,1.60
2019-05-13T11:06:24.849Z,1.67
2019-05-13T11:08:53.301Z,1.60
2019-05-13T11:11:21.848Z,1.60
2019-05-13T11:13:54.513Z,1.77
2019-05-13T11:16:15.803Z,1.40
2019-05-13T11:18:43.595Z,1.50
2019-05-13T11:21:12.994Z,1.60
2019-05-13T11:23:39.444Z,1.67
2019-05-13T11:26:07.031Z,1.50
2019-05-13T11:28:34.571Z,1.90
2019-05-13T11:31:03.265Z,2.30
2019-05-13T11:33:31.845Z,1.90
2019-05-13T11:35:58.770Z,1.70
2019-05-13T11:38:26.243Z,1.40
2019-05-13T11:40:54.552Z,1.43
2019-05-13T11:43:27.564Z,1.50
2019-05-13T11:45:50.886Z,1.40
2019-05-13T11:48:17.149Z,1.30
2019-05-13T11:50:49.776Z,1.40
2019-05-13T11:53:31.348Z,1.80
2019-05-13T11:55:42.418Z,1.60
2019-05-13T11:58:08.668Z,1.50
2019-05-13T12:00:42.701Z,1.43
2019-05-13T12:03:09.772Z,1.83
2019-05-13T12:05:37.270Z,1.80
2019-05-13T12:08:05.621Z,1.90
2019-05-13T12:10:33.288Z,1.60
2019-05-13T12:13:00.781Z,1.67
2019-05-13T12:15:45.497Z,1.33
2019-05-13T12:17:57.214Z,1.40
2019-05-13T12:20:26.316Z,1.65
2019-05-13T12:22:53.918Z,1.63
2019-05-13T12:25:22.428Z,1.50
2019-05-13T12:27:51.868Z,2.10
2019-05-13T12:30:17.981Z,1.70
2019-05-13T12:32:45.656Z,1.80
2019-05-13T12:35:13.581Z,2.07
2019-05-13T12:37:42.136Z,1.37
2019-05-13T12:40:08.167Z,1.30
2019-05-13T12:42:42.771Z,1.90
2019-05-13T12:45:09.661Z,1.67
2019-05-13T12:47:33.144Z,1.40
2019-05-13T12:50:03.395Z,1.27
2019-05-13T12:52:32.265Z,1.60
2019-05-13T12:54:57.150Z,1.90
2019-05-13T12:57:25.404Z,1.37
2019-05-13T12:59:53.716Z,1.23
2019-05-13T13:02:22.590Z,1.37
2019-05-13T13:05:09.371Z,1.30
2019-05-13T13:07:17.801Z,1.70
2019-05-13T13:09:45.301Z,1.67
2019-05-13T13:12:13.574Z,1.90
2019-05-13T13:14:44.255Z,1.63
2019-05-13T13:17:12.906Z,1.70
2019-05-13T13:19:37.688Z,1.53
2019-05-13T13:22:07.896Z,1.67
2019-05-13T13:24:32.669Z,1.30
2019-05-13T13:27:00.175Z,1.20
2019-05-13T13:29:27.733Z,1.37
2019-05-13T13:31:56.024Z,1.20
2019-05-13T13:34:26.008Z,1.60
2019-05-13T13:36:52.685Z,1.50
2019-05-13T13:39:17.759Z,1.40
2019-05-13T13:41:45.239Z,1.50
2019-05-13T13:44:13.021Z,1.37
2019-05-13T13:46:44.608Z,1.50
2019-05-13T13:49:12.640Z,1.40
2019-05-13T13:51:37.851Z,1.10
2019-05-13T13:54:05.410Z,1.40
2019-05-13T13:56:33.237Z,1.70
2019-05-13T13:59:04.335Z,1.40
2019-05-13T14:01:28.233Z,1.30
2019-05-13T14:03:56.594Z,1.47
2019-05-13T14:07:22.327Z,1.50
2019-05-13T14:08:52.117Z,1.40
2019-05-13T14:11:19.187Z,1.40
2019-05-13T14:13:46.679Z,1.33
2019-05-13T14:16:28.704Z,1.10
2019-05-13T14:18:42.439Z,1.20
2019-05-13T14:21:09.957Z,1.20
2019-05-13T14:23:38.947Z,1.60
2019-05-13T14:26:06.434Z,1.40
2019-05-13T14:28:33.930Z,1.20
2019-05-13T14:31:01.911Z,1.20
2019-05-13T14:33:32.609Z,1.30
2019-05-13T14:36:01.272Z,1.17
2019-05-13T14:38:26.918Z,1.40
2019-05-13T14:40:55.381Z,1.10
2019-05-13T14:43:23.096Z,1.20
2019-05-13T14:45:52.121Z,1.20
2019-05-13T14:48:19.014Z,1.30
2019-05-13T14:50:47.258Z,1.30
2019-05-13T14:53:14.752Z,1.37
2019-05-13T14:55:43.131Z,1.30
2019-05-13T14:58:10.629Z,1.23
2019-05-13T15:00:38.971Z,1.00
2019-05-13T15:03:06.480Z,1.12
2019-05-13T15:05:33.966Z,1.47
2019-05-13T15:08:01.461Z,1.57
2019-05-13T15:10:30.923Z,2.20
2019-05-13T15:12:57.200Z,1.73
2019-05-13T15:15:24.687Z,1.50
2019-05-13T15:17:52.954Z,1.30
2019-05-13T15:20:21.814Z,1.60
2019-05-13T15:22:48.787Z,1.40
2019-05-13T15:25:16.466Z,1.67
2019-05-13T15:27:44.029Z,2.37
2019-05-13T15:30:18.352Z,3.10
2019-05-13T15:32:41.995Z,1.60
2019-05-13T15:35:10.077Z,1.53
2019-05-13T15:37:35.908Z,1.60
2019-05-13T15:40:05.572Z,2.10
2019-05-13T15:42:33.089Z,1.50
2019-05-13T15:45:01.984Z,1.40
2019-05-13T15:47:29.812Z,1.43
2019-05-13T15:49:58.151Z,1.43
2019-05-13T15:52:25.702Z,1.77
2019-05-13T15:54:53.535Z,1.50
2019-05-13T15:57:21.419Z,1.30
2019-05-13T15:59:48.651Z,1.40
2019-05-13T16:02:16.268Z,1.40
2019-05-13T16:04:52.697Z,1.40
2019-05-13T16:07:12.223Z,1.20
2019-05-13T16:09:42.086Z,1.27
2019-05-13T16:12:08.368Z,1.37
2019-05-13T16:14:36.747Z,1.90
2019-05-13T16:17:04.249Z,1.40
2019-05-13T16:19:32.828Z,1.23
2019-05-13T16:22:01.354Z,1.57
2019-05-13T16:24:28.332Z,1.47
2019-05-13T16:26:55.897Z,1.40
2019-05-13T16:29:24.495Z,1.30
2019-05-13T16:31:52.174Z,1.03
2019-05-13T16:34:22.297Z,1.20
2019-05-13T16:36:48.714Z,2.10
2019-05-13T16:39:16.798Z,1.37
2019-05-13T16:41:44.299Z,1.23
2019-05-13T16:44:12.183Z,1.00
2019-05-13T16:46:42.333Z,1.63
2019-05-13T16:49:07.625Z,2.30
2019-05-13T16:51:35.137Z,1.40
2019-05-13T16:54:04.834Z,1.20
2019-05-13T16:56:33.435Z,1.13
2019-05-13T16:59:01.623Z,1.10
2019-05-13T17:01:28.973Z,1.40
2019-05-13T17:03:57.247Z,1.47
2019-05-13T17:06:24.719Z,2.00
2019-05-13T17:08:52.267Z,1.80
2019-05-13T17:11:19.827Z,4.73
2019-05-13T17:13:47.499Z,2.10
2019-05-13T17:16:15.057Z,1.70
2019-05-13T17:18:42.626Z,1.27
2019-05-13T17:21:10.210Z,1.83
2019-05-13T17:23:37.777Z,1.20
2019-05-13T17:26:06.138Z,1.47
2019-05-13T17:28:34.296Z,2.00
2019-05-13T17:31:02.220Z,1.80
2019-05-13T17:33:28.737Z,1.67
2019-05-13T17:35:56.221Z,1.33
2019-05-13T17:38:24.591Z,1.40
2019-05-13T17:40:53.141Z,1.40
2019-05-13T17:43:21.317Z,1.00
2019-05-13T17:45:47.970Z,1.20
2019-05-13T17:48:25.835Z,1.00
2019-05-13T17:50:43.811Z,1.10
2019-05-13T17:53:11.532Z,1.00
2019-05-13T17:55:38.839Z,1.13
2019-05-13T17:58:06.428Z,1.13
2019-05-13T18:00:33.983Z,1.20
2019-05-13T18:03:01.927Z,1.13
2019-05-13T18:05:31.377Z,1.10
2019-05-13T18:07:57.702Z,1.00
2019-05-13T18:10:25.444Z,1.00
2019-05-13T18:12:52.969Z,0.97
2019-05-13T18:15:22.161Z,1.00
2019-05-13T18:17:48.769Z,1.07
2019-05-13T18:20:16.518Z,1.00
2019-05-13T18:22:43.991Z,1.10
2019-05-13T18:25:12.191Z,1.17
2019-05-13T18:27:41.637Z,1.20
2019-05-13T18:30:08.437Z,0.97
2019-05-13T18:32:35.927Z,1.20
2019-05-13T18:35:04.297Z,1.00
2019-05-13T18:37:31.916Z,1.40
2019-05-13T18:39:59.433Z,1.27
2019-05-13T18:42:27.711Z,1.23
2019-05-13T18:44:55.354Z,1.00
2019-05-13T18:47:23.112Z,1.40
2019-05-13T18:49:50.697Z,1.27
2019-05-13T18:52:18.258Z,1.40
2019-05-13T18:54:45.815Z,1.17
2019-05-13T18:57:13.394Z,1.15
2019-05-13T18:59:41.733Z,1.03
2019-05-13T19:02:12.051Z,1.07
2019-05-13T19:04:38.230Z,1.70
2019-05-13T19:07:07.830Z,1.33
2019-05-13T19:09:34.129Z,1.30
2019-05-13T19:12:01.702Z,0.80
2019-05-13T19:14:31.768Z,1.30
2019-05-13T19:16:57.514Z,1.10
2019-05-13T19:19:25.771Z,1.33
2019-05-13T19:21:53.401Z,1.20
2019-05-13T19:24:20.892Z,1.40
2019-05-13T19:26:48.402Z,1.20
2019-05-13T19:29:15.899Z,1.73
2019-05-13T19:31:44.686Z,1.50
2019-05-13T19:34:12.783Z,1.50
2019-05-13T19:36:39.959Z,1.30
2019-05-13T19:39:08.247Z,1.50
2019-05-13T19:41:36.500Z,1.30
2019-05-13T19:44:04.067Z,1.20
2019-05-13T19:46:31.638Z,1.30
2019-05-13T19:49:01.431Z,1.60
2019-05-13T19:51:28.397Z,1.40
2019-05-13T19:53:55.769Z,1.23
2019-05-13T19:56:24.040Z,1.43
2019-05-13T19:58:51.608Z,1.50
2019-05-13T20:01:21.520Z,1.60
2019-05-13T20:03:48.557Z,1.50
2019-05-13T20:06:16.654Z,1.50
2019-05-13T20:08:44.170Z,1.70
2019-05-13T20:11:11.761Z,1.40
2019-05-13T20:13:41.838Z,1.67
2019-05-13T20:16:08.245Z,1.60
2019-05-13T20:18:36.534Z,1.37
2019-05-13T20:21:05.015Z,1.73
2019-05-13T20:23:33.571Z,1.37
2019-05-13T20:26:01.170Z,1.40
2019-05-13T20:28:28.638Z,1.77
2019-05-13T20:30:56.891Z,1.60
2019-05-13T20:33:26.001Z,1.50
2019-05-13T20:35:53.479Z,2.00
2019-05-13T20:38:22.225Z,1.60
2019-05-13T20:40:51.811Z,1.40
2019-05-13T20:43:16.893Z,1.67
2019-05-13T20:45:45.244Z,1.93
2019-05-13T20:48:13.212Z,1.70
2019-05-13T20:50:41.403Z,1.40
2019-05-13T20:53:11.365Z,1.70
2019-05-13T20:55:36.823Z,1.37
2019-05-13T20:58:04.341Z,1.77
2019-05-13T21:00:31.903Z,1.63
2019-05-13T21:02:59.393Z,1.70
2019-05-13T21:05:26.991Z,1.70
2019-05-13T21:07:54.678Z,1.37
2019-05-13T21:10:23.091Z,1.70
2019-05-13T21:12:51.449Z,1.77
2019-05-13T21:15:18.372Z,1.57
2019-05-13T21:17:46.751Z,1.63
2019-05-13T21:20:21.432Z,1.63
2019-05-13T21:22:42.696Z,1.97
2019-05-13T21:25:10.349Z,1.80
2019-05-13T21:27:37.858Z,1.50
2019-05-13T21:30:06.222Z,1.37
2019-05-13T21:32:33.689Z,1.63
2019-05-13T21:35:01.942Z,1.67
2019-05-13T21:37:32.452Z,1.90
2019-05-13T21:40:00.006Z,1.80
2019-05-13T21:42:27.484Z,1.60
2019-05-13T21:44:55.083Z,1.83
2019-05-13T21:47:22.672Z,2.00
2019-05-13T21:49:51.633Z,1.90
2019-05-13T21:52:21.538Z,1.90
2019-05-13T21:54:46.522Z,1.83
2019-05-13T21:57:14.113Z,1.87
2019-05-13T21:59:44.910Z,1.93
2019-05-13T22:02:09.186Z,1.80
2019-05-13T22:04:37.578Z,1.80
2019-05-13T22:07:05.260Z,1.60
2019-05-13T22:09:32.993Z,1.73
2019-05-13T22:12:02.006Z,1.80
2019-05-13T22:14:28.928Z,2.00
2019-05-13T22:16:56.731Z,1.90
2019-05-13T22:19:24.019Z,2.10
2019-05-13T22:21:51.628Z,2.10
2019-05-13T22:24:19.167Z,2.07
2019-05-13T22:26:46.731Z,2.10
2019-05-13T22:29:14.325Z,1.80
2019-05-13T22:31:42.843Z,1.67
2019-05-13T22:34:12.111Z,1.70
2019-05-13T22:36:38.635Z,1.90
2019-05-13T22:39:06.289Z,1.73
2019-05-13T22:41:33.865Z,1.50
2019-05-13T22:44:01.640Z,1.73
2019-05-13T22:46:32.036Z,2.10
2019-05-13T22:48:56.716Z,2.10
2019-05-13T22:51:24.191Z,2.30
2019-05-13T22:53:51.825Z,1.80
2019-05-13T22:56:21.867Z,2.03
2019-05-13T22:58:47.633Z,1.73
2019-05-13T23:01:15.194Z,1.67
2019-05-13T23:03:42.759Z,1.90
2019-05-13T23:06:12.105Z,1.77
2019-05-13T23:08:37.750Z,1.77
2019-05-13T23:11:05.262Z,2.27
2019-05-13T23:13:33.628Z,2.10
2019-05-13T23:16:02.524Z,1.80
2019-05-13T23:18:31.692Z,2.00
2019-05-13T23:20:59.169Z,1.80
2019-05-13T23:23:26.649Z,2.03
2019-05-13T23:25:56.673Z,1.87
2019-05-13T23:28:22.599Z,1.60
2019-05-13T23:30:51.137Z,2.00
2019-05-13T23:33:18.206Z,1.60
2019-05-13T23:35:45.787Z,2.07
2019-05-13T23:38:13.319Z,2.20
2019-05-13T23:40:42.097Z,1.90
2019-05-13T23:43:08.540Z,2.00
2019-05-13T23:45:36.022Z,2.30
2019-05-13T23:48:04.686Z,2.60
2019-05-13T23:50:32.252Z,2.10
2019-05-13T23:53:00.597Z,1.73
2019-05-13T23:55:32.217Z,2.20
2019-05-13T23:57:57.670Z,2.07
